createdAt,value
2022-12-31T00:01:24.245Z,98540.53
2022-12-31T00:03:57.587Z,98522.81
2022-12-31T00:06:29.982Z,98518.94
2022-12-31T00:09:01.104Z,98538.47
2022-12-31T00:11:30.731Z,98534.25
2022-12-31T00:14:00.133Z,98542.22
2022-12-31T00:16:31.286Z,98531.59
2022-12-31T00:19:01.887Z,98525.81
2022-12-31T00:21:34.107Z,98512.19
2022-12-31T00:24:03.354Z,98523.06
2022-12-31T00:26:34.316Z,98523.66
2022-12-31T00:29:04.168Z,98520.06
2022-12-31T00:31:34.582Z,98520.41
2022-12-31T00:34:03.913Z,98520.63
2022-12-31T00:36:39.003Z,98511.00
2022-12-31T00:39:11.924Z,98523.53
2022-12-31T00:41:41.676Z,98532.56
2022-12-31T00:44:12.602Z,98534.88
2022-12-31T00:49:13.973Z,98526.66
2022-12-31T00:51:44.021Z,98520.72
2022-12-31T00:54:12.388Z,98517.47
2022-12-31T00:56:40.648Z,98521.19
2022-12-31T00:59:08.971Z,98510.69
2022-12-31T01:01:39.706Z,98504.38
2022-12-31T01:04:10.649Z,98495.97
2022-12-31T01:06:42.540Z,98508.97
2022-12-31T01:09:13.385Z,98518.84
2022-12-31T01:11:41.857Z,98518.50
2022-12-31T01:14:11.921Z,98512.00
2022-12-31T01:16:42.667Z,98515.84
2022-12-31T01:19:16.471Z,98528.47
2022-12-31T01:21:46.230Z,98513.84
2022-12-31T01:24:16.638Z,98518.66
2022-12-31T01:26:46.241Z,98520.84
2022-12-31T01:29:16.498Z,98526.38
2022-12-31T01:31:44.825Z,98528.53
2022-12-31T01:34:13.335Z,98537.66
2022-12-31T01:36:41.822Z,98518.81
2022-12-31T01:39:11.078Z,98501.75
2022-12-31T01:41:45.946Z,98513.72
2022-12-31T01:44:53.706Z,98509.47
2022-12-31T01:47:37.649Z,98515.25
2022-12-31T01:50:11.955Z,98532.88
2022-12-31T01:52:44.544Z,98527.06
2022-12-31T01:55:18.598Z,98511.41
2022-12-31T01:57:55.057Z,98501.75
2022-12-31T02:00:23.209Z,98519.94
2022-12-31T02:02:51.637Z,98503.72
2022-12-31T02:05:28.982Z,98500.28
2022-12-31T02:07:58.868Z,98490.00
2022-12-31T02:10:28.667Z,98497.63
2022-12-31T02:12:58.994Z,98492.91
2022-12-31T02:15:44.965Z,98496.31
2022-12-31T02:18:25.707Z,98489.19
2022-12-31T02:21:38.145Z,98490.28
2022-12-31T02:24:54.551Z,98470.88
2022-12-31T02:27:36.008Z,98461.13
2022-12-31T02:30:14.256Z,98476.06
2022-12-31T02:33:09.947Z,98468.09
2022-12-31T02:35:48.489Z,98478.34
2022-12-31T02:38:21.227Z,98443.94
2022-12-31T02:40:52.030Z,98463.84
2022-12-31T02:43:23.307Z,98465.34
2022-12-31T02:46:07.778Z,98478.44
2022-12-31T02:48:46.000Z,98489.47
2022-12-31T02:51:35.782Z,98484.97
2022-12-31T02:54:20.593Z,98477.88
2022-12-31T02:56:56.573Z,98478.63
2022-12-31T02:59:48.356Z,98472.19
2022-12-31T03:02:21.775Z,98468.56
2022-12-31T03:04:53.721Z,98458.03
2022-12-31T03:07:24.246Z,98461.53
2022-12-31T03:09:52.695Z,98449.34
2022-12-31T03:12:41.508Z,98440.38
2022-12-31T03:15:20.439Z,98449.06
2022-12-31T03:18:07.525Z,98450.72
2022-12-31T03:20:56.901Z,98452.56
2022-12-31T03:23:27.624Z,98475.00
2022-12-31T03:25:56.741Z,98467.25
2022-12-31T03:28:28.988Z,98474.03
2022-12-31T03:31:00.140Z,98487.84
2022-12-31T03:33:32.899Z,98482.41
2022-12-31T03:36:01.099Z,98477.69
2022-12-31T03:38:29.561Z,98468.09
2022-12-31T03:41:00.524Z,98475.44
2022-12-31T03:43:32.850Z,98475.47
2022-12-31T03:46:02.020Z,98484.13
2022-12-31T03:48:33.106Z,98480.38
2022-12-31T03:51:03.067Z,98480.59
2022-12-31T03:53:32.268Z,98467.19
2022-12-31T03:56:01.828Z,98475.44
2022-12-31T03:58:30.487Z,98489.88
2022-12-31T04:01:00.716Z,98477.72
2022-12-31T04:03:31.720Z,98490.47
2022-12-31T04:06:01.831Z,98490.56
2022-12-31T04:08:30.374Z,98481.06
2022-12-31T04:10:58.673Z,98489.19
2022-12-31T04:13:26.893Z,98487.94
2022-12-31T04:15:55.864Z,98486.97
2022-12-31T04:18:25.699Z,98480.66
2022-12-31T04:20:54.629Z,98489.78
2022-12-31T04:23:26.651Z,98483.75
2022-12-31T04:25:55.685Z,98483.19
2022-12-31T04:28:24.392Z,98497.59
2022-12-31T04:30:55.621Z,98493.00
2022-12-31T04:33:25.649Z,98507.88
2022-12-31T04:35:54.166Z,98493.00
2022-12-31T04:38:23.862Z,98512.78
2022-12-31T04:41:09.119Z,98510.69
2022-12-31T04:43:37.815Z,98513.22
2022-12-31T04:46:10.182Z,98501.28
2022-12-31T04:48:40.111Z,98504.25
2022-12-31T04:51:08.785Z,98509.44
2022-12-31T04:53:41.261Z,98499.34
2022-12-31T04:56:10.870Z,98499.34
2022-12-31T04:58:41.326Z,98488.13
2022-12-31T05:01:10.665Z,98494.00
2022-12-31T05:03:39.378Z,98496.53
2022-12-31T05:06:10.013Z,98480.41
2022-12-31T05:08:41.341Z,98487.53
2022-12-31T05:11:10.247Z,98495.56
2022-12-31T05:13:38.843Z,98487.56
2022-12-31T05:16:07.797Z,98500.28
2022-12-31T05:18:36.626Z,98499.75
2022-12-31T05:21:05.635Z,98496.41
2022-12-31T05:23:34.169Z,98503.28
2022-12-31T05:26:04.229Z,98499.53
2022-12-31T05:28:35.591Z,98516.38
2022-12-31T05:31:04.094Z,98508.53
2022-12-31T05:33:32.774Z,98515.97
2022-12-31T05:36:00.983Z,98494.78
2022-12-31T05:38:29.327Z,98516.66
2022-12-31T05:41:04.234Z,98508.22
2022-12-31T05:43:32.740Z,98507.13
2022-12-31T05:46:03.020Z,98512.66
2022-12-31T05:48:32.360Z,98513.66
2022-12-31T05:51:00.795Z,98515.22
2022-12-31T05:53:29.471Z,98525.44
2022-12-31T05:55:58.028Z,98535.84
2022-12-31T05:58:28.435Z,98533.91
2022-12-31T06:00:57.340Z,98537.69
2022-12-31T06:03:27.554Z,98539.13
2022-12-31T06:05:55.817Z,98540.63
2022-12-31T06:08:24.506Z,98549.34
2022-12-31T06:10:53.163Z,98552.56
2022-12-31T06:13:21.827Z,98553.78
2022-12-31T06:15:51.869Z,98562.63
2022-12-31T06:18:21.212Z,98551.25
2022-12-31T06:20:49.564Z,98555.03
2022-12-31T06:23:17.769Z,98560.38
2022-12-31T06:25:46.086Z,98561.75
2022-12-31T06:28:20.100Z,98558.25
2022-12-31T06:30:48.981Z,98566.53
2022-12-31T06:33:18.956Z,98570.09
2022-12-31T06:35:47.411Z,98563.34
2022-12-31T06:38:15.936Z,98569.13
2022-12-31T06:40:44.638Z,98559.59
2022-12-31T06:43:12.986Z,98566.63
2022-12-31T06:45:41.327Z,98568.59
2022-12-31T06:48:09.633Z,98563.38
2022-12-31T06:50:40.653Z,98573.09
2022-12-31T06:53:09.543Z,98571.13
2022-12-31T06:55:38.541Z,98575.63
2022-12-31T06:58:07.372Z,98571.97
2022-12-31T07:00:37.793Z,98569.56
2022-12-31T07:03:18.813Z,98575.31
2022-12-31T07:05:52.804Z,98580.22
2022-12-31T07:08:40.277Z,98564.50
2022-12-31T07:11:17.295Z,98568.16
2022-12-31T07:13:58.806Z,98565.09
2022-12-31T07:16:40.441Z,98569.16
2022-12-31T07:19:18.897Z,98589.34
2022-12-31T07:21:51.143Z,98599.88
2022-12-31T07:24:21.286Z,98594.13
2022-12-31T07:27:02.763Z,98599.44
2022-12-31T07:29:51.631Z,98609.28
2022-12-31T07:32:34.915Z,98632.88
2022-12-31T07:35:09.919Z,98595.03
2022-12-31T07:37:49.063Z,98592.38
2022-12-31T07:40:24.260Z,98594.19
2022-12-31T07:43:10.288Z,98598.75
2022-12-31T07:45:48.437Z,98597.06
2022-12-31T07:48:25.506Z,98587.50
2022-12-31T07:50:56.184Z,98607.47
2022-12-31T07:53:27.986Z,98599.19
2022-12-31T07:55:58.713Z,98612.53
2022-12-31T07:58:39.356Z,98602.41
2022-12-31T08:01:11.130Z,98634.16
2022-12-31T08:03:52.883Z,98634.47
2022-12-31T08:06:32.310Z,98628.81
2022-12-31T08:09:16.501Z,98637.22
2022-12-31T08:11:53.373Z,98644.41
2022-12-31T08:14:23.151Z,98643.16
2022-12-31T08:16:52.167Z,98637.66
2022-12-31T08:19:26.669Z,98645.38
2022-12-31T08:22:11.717Z,98650.84
2022-12-31T08:24:56.007Z,98654.06
2022-12-31T08:27:32.778Z,98656.75
2022-12-31T08:30:11.923Z,98653.38
2022-12-31T08:32:46.601Z,98679.91
2022-12-31T08:35:33.236Z,98652.13
2022-12-31T08:38:08.618Z,98662.81
2022-12-31T08:40:49.581Z,98679.63
2022-12-31T08:43:32.577Z,98663.50
2022-12-31T08:46:02.142Z,98672.34
2022-12-31T08:48:38.774Z,98668.97
2022-12-31T08:51:11.618Z,98649.72
2022-12-31T08:53:43.378Z,98662.91
2022-12-31T08:56:25.943Z,98661.38
2022-12-31T08:59:08.070Z,98669.34
2022-12-31T09:01:49.543Z,98675.84
2022-12-31T09:04:27.109Z,98670.34
2022-12-31T09:07:00.287Z,98675.69
2022-12-31T09:09:41.713Z,98696.03
2022-12-31T09:12:22.356Z,98671.63
2022-12-31T09:14:56.381Z,98687.78
2022-12-31T09:17:45.546Z,98689.03
2022-12-31T09:20:22.458Z,98679.22
2022-12-31T09:22:52.657Z,98692.97
2022-12-31T09:25:23.040Z,98697.03
2022-12-31T09:28:09.422Z,98689.59
2022-12-31T09:30:48.340Z,98704.47
2022-12-31T09:33:30.641Z,98705.56
2022-12-31T09:36:02.205Z,98711.50
2022-12-31T09:38:36.580Z,98713.91
2022-12-31T09:41:17.174Z,98720.06
2022-12-31T09:44:33.275Z,98704.88
2022-12-31T09:47:50.950Z,98720.66
2022-12-31T09:50:44.000Z,98707.72
2022-12-31T09:53:40.127Z,98723.59
2022-12-31T09:56:16.880Z,98713.91
2022-12-31T09:58:58.872Z,98706.19
2022-12-31T10:01:56.270Z,98712.78
2022-12-31T10:04:54.007Z,98717.59
2022-12-31T10:07:34.934Z,98721.94
2022-12-31T10:10:16.099Z,98718.28
2022-12-31T10:13:10.174Z,98721.78
2022-12-31T10:16:17.087Z,98722.09
2022-12-31T10:19:08.994Z,98732.50
2022-12-31T10:21:53.235Z,98740.06
2022-12-31T10:24:44.227Z,98729.97
2022-12-31T10:27:49.699Z,98721.28
2022-12-31T10:30:20.604Z,98721.53
2022-12-31T10:33:01.408Z,98721.56
2022-12-31T10:35:42.666Z,98723.47
2022-12-31T10:38:25.719Z,98713.88
2022-12-31T10:41:20.612Z,98708.13
2022-12-31T10:44:51.927Z,98711.63
2022-12-31T10:47:53.200Z,98728.50
2022-12-31T10:50:57.429Z,98720.13
2022-12-31T10:53:44.089Z,98730.25
2022-12-31T10:56:47.003Z,98726.59
2022-12-31T11:00:05.242Z,98747.97
2022-12-31T11:03:04.045Z,98738.09
2022-12-31T11:05:52.069Z,98736.94
2022-12-31T11:08:46.852Z,98732.16
2022-12-31T11:11:29.525Z,98741.25
2022-12-31T11:14:36.806Z,98742.97
2022-12-31T11:17:20.335Z,98738.56
2022-12-31T11:20:01.409Z,98744.69
2022-12-31T11:22:44.911Z,98747.38
2022-12-31T11:25:32.006Z,98751.75
2022-12-31T11:28:24.232Z,98734.25
2022-12-31T11:31:10.678Z,98744.91
2022-12-31T11:33:54.976Z,98750.78
2022-12-31T11:36:35.787Z,98738.38
2022-12-31T11:39:30.750Z,98746.31
2022-12-31T11:42:16.582Z,98762.53
2022-12-31T11:44:51.727Z,98740.00
2022-12-31T11:48:12.193Z,98757.34
2022-12-31T11:50:36.778Z,98748.91
2022-12-31T11:53:24.146Z,98753.41
2022-12-31T11:56:09.261Z,98742.06
2022-12-31T11:58:43.680Z,98744.31
2022-12-31T12:01:15.416Z,98739.25
2022-12-31T12:03:43.989Z,98741.66
2022-12-31T12:06:15.403Z,98755.28
2022-12-31T12:08:47.452Z,98740.38
2022-12-31T12:11:22.038Z,98745.75
2022-12-31T12:13:52.646Z,98744.84
2022-12-31T12:16:23.902Z,98743.06
2022-12-31T12:19:03.695Z,98740.94
2022-12-31T12:21:34.070Z,98753.31
2022-12-31T12:24:05.744Z,98748.66
2022-12-31T12:26:37.599Z,98740.94
2022-12-31T12:29:20.596Z,98736.13
2022-12-31T12:31:59.092Z,98744.41
2022-12-31T12:34:30.017Z,98749.06
2022-12-31T12:36:59.148Z,98749.22
2022-12-31T12:39:30.567Z,98748.25
2022-12-31T12:42:07.031Z,98742.03
2022-12-31T12:44:37.137Z,98755.25
2022-12-31T12:47:07.932Z,98738.75
2022-12-31T12:49:46.136Z,98731.44
2022-12-31T12:52:35.786Z,98725.06
2022-12-31T12:55:16.290Z,98721.72
2022-12-31T12:57:51.567Z,98723.88
2022-12-31T13:00:23.463Z,98721.22
2022-12-31T13:03:10.087Z,98715.00
2022-12-31T13:05:53.578Z,98722.19
2022-12-31T13:08:36.789Z,98715.50
2022-12-31T13:11:18.522Z,98718.69
2022-12-31T13:13:56.799Z,98715.91
2022-12-31T13:16:36.843Z,98699.56
2022-12-31T13:19:11.379Z,98696.50
2022-12-31T13:21:48.953Z,98710.88
2022-12-31T13:24:30.681Z,98697.94
2022-12-31T13:27:09.824Z,98694.59
2022-12-31T13:29:40.806Z,98702.44
2022-12-31T13:32:17.834Z,98701.59
2022-12-31T13:34:49.647Z,98708.78
2022-12-31T13:37:27.649Z,98712.69
2022-12-31T13:40:03.633Z,98710.69
2022-12-31T13:42:40.811Z,98718.00
2022-12-31T13:45:19.530Z,98700.94
2022-12-31T13:47:53.940Z,98697.59
2022-12-31T13:50:29.110Z,98680.75
2022-12-31T13:53:00.254Z,98688.25
2022-12-31T13:55:37.468Z,98687.94
2022-12-31T13:58:14.775Z,98701.72
2022-12-31T14:00:46.562Z,98691.00
2022-12-31T14:03:25.966Z,98700.59
2022-12-31T14:05:58.414Z,98695.25
2022-12-31T14:08:30.179Z,98705.03
2022-12-31T14:11:06.327Z,98709.94
2022-12-31T14:13:53.331Z,98704.75
2022-12-31T14:16:27.522Z,98716.97
2022-12-31T14:19:10.748Z,98725.72
2022-12-31T14:21:46.138Z,98723.19
2022-12-31T14:24:23.591Z,98734.84
2022-12-31T14:26:57.385Z,98736.56
2022-12-31T14:29:35.979Z,98718.53
2022-12-31T14:32:26.412Z,98731.44
2022-12-31T14:35:05.610Z,98738.94
2022-12-31T14:37:44.104Z,98753.00
2022-12-31T14:40:25.462Z,98758.34
2022-12-31T14:43:15.756Z,98751.19
2022-12-31T14:46:02.865Z,98756.41
2022-12-31T14:48:47.107Z,98756.97
2022-12-31T14:51:20.019Z,98768.66
2022-12-31T14:53:55.019Z,98768.34
2022-12-31T14:56:42.547Z,98758.81
2022-12-31T14:59:28.978Z,98768.78
2022-12-31T15:01:59.875Z,98779.84
2022-12-31T15:04:43.539Z,98769.88
2022-12-31T15:07:24.263Z,98770.56
2022-12-31T15:10:04.965Z,98783.19
2022-12-31T15:12:55.370Z,98771.66
2022-12-31T15:15:58.932Z,98770.00
2022-12-31T15:18:37.572Z,98783.63
2022-12-31T15:21:35.115Z,98780.38
2022-12-31T15:24:15.648Z,98770.94
2022-12-31T15:26:52.226Z,98771.94
2022-12-31T15:29:32.446Z,98789.09
2022-12-31T15:32:04.040Z,98777.84
2022-12-31T15:34:35.124Z,98777.00
2022-12-31T15:37:06.006Z,98774.06
2022-12-31T15:39:45.377Z,98765.91
2022-12-31T15:42:49.794Z,98765.50
2022-12-31T15:45:26.134Z,98763.81
2022-12-31T15:47:58.488Z,98763.66
2022-12-31T15:50:27.821Z,98769.25
2022-12-31T15:52:58.310Z,98761.56
2022-12-31T15:55:34.453Z,98759.72
2022-12-31T15:58:10.609Z,98758.00
2022-12-31T16:00:54.355Z,98765.31
2022-12-31T16:03:26.553Z,98767.16
2022-12-31T16:06:00.396Z,98765.44
2022-12-31T16:08:32.673Z,98785.25
2022-12-31T16:11:05.552Z,98778.38
2022-12-31T16:13:38.620Z,98775.84
2022-12-31T16:16:10.762Z,98768.94
2022-12-31T16:18:42.884Z,98789.59
2022-12-31T16:21:27.576Z,98790.94
2022-12-31T16:24:00.333Z,98789.56
2022-12-31T16:26:37.027Z,98788.88
2022-12-31T16:29:05.849Z,98794.34
2022-12-31T16:31:37.994Z,98801.53
2022-12-31T16:34:08.089Z,98787.09
2022-12-31T16:36:36.978Z,98785.81
2022-12-31T16:39:29.168Z,98781.19
2022-12-31T16:42:20.232Z,98779.47
2022-12-31T16:44:49.802Z,98788.34
2022-12-31T16:47:21.822Z,98783.97
2022-12-31T16:49:56.883Z,98777.06
2022-12-31T16:52:30.646Z,98777.38
2022-12-31T16:55:01.126Z,98784.38
2022-12-31T16:57:33.698Z,98789.72
2022-12-31T17:00:04.985Z,98781.25
2022-12-31T17:02:39.517Z,98785.19
2022-12-31T17:05:20.644Z,98774.41
2022-12-31T17:07:49.561Z,98780.44
2022-12-31T17:10:22.611Z,98785.56
2022-12-31T17:15:47.286Z,98792.81
2022-12-31T17:18:20.489Z,98785.78
2022-12-31T17:20:51.913Z,98789.19
2022-12-31T17:23:28.771Z,98810.00
2022-12-31T17:26:03.882Z,98802.41
2022-12-31T17:28:44.817Z,98805.75
2022-12-31T17:31:29.226Z,98796.19
2022-12-31T17:34:08.034Z,98809.81
2022-12-31T17:36:38.429Z,98803.91
2022-12-31T17:39:18.917Z,98819.09
2022-12-31T17:41:52.073Z,98804.63
2022-12-31T17:44:25.237Z,98809.44
2022-12-31T17:46:54.635Z,98805.50
2022-12-31T17:49:27.400Z,98794.69
2022-12-31T17:51:56.069Z,98801.13
2022-12-31T17:54:24.789Z,98803.47
2022-12-31T17:56:54.520Z,98807.53
2022-12-31T17:59:29.845Z,98804.41
2022-12-31T18:02:07.278Z,98807.34
2022-12-31T18:04:35.923Z,98807.66
2022-12-31T18:07:05.758Z,98814.34
2022-12-31T18:09:37.271Z,98796.09
2022-12-31T18:12:08.547Z,98804.13
2022-12-31T18:14:41.819Z,98806.06
2022-12-31T18:17:15.980Z,98816.03
2022-12-31T18:20:04.099Z,98809.09
2022-12-31T18:22:33.939Z,98809.34
2022-12-31T18:25:04.553Z,98809.47
2022-12-31T18:27:36.382Z,98808.78
2022-12-31T18:30:16.714Z,98807.06
2022-12-31T18:32:59.487Z,98816.53
2022-12-31T18:38:38.835Z,98823.97
2022-12-31T18:41:10.570Z,98824.44
2022-12-31T18:43:42.171Z,98818.56
2022-12-31T18:46:17.477Z,98808.97
2022-12-31T18:48:52.654Z,98817.25
2022-12-31T18:51:31.382Z,98814.44
2022-12-31T18:54:02.935Z,98809.50
2022-12-31T18:56:34.167Z,98811.72
2022-12-31T18:59:05.676Z,98806.03
2022-12-31T19:01:43.219Z,98806.03
2022-12-31T19:04:21.297Z,98817.44
2022-12-31T19:06:55.808Z,98816.41
2022-12-31T19:12:15.433Z,98817.53
2022-12-31T19:14:43.767Z,98819.38
2022-12-31T19:17:14.957Z,98811.06
2022-12-31T19:19:43.830Z,98810.66
2022-12-31T19:22:16.830Z,98827.22
2022-12-31T19:24:45.090Z,98825.72
2022-12-31T19:27:27.798Z,98827.09
2022-12-31T19:29:56.172Z,98817.59
2022-12-31T19:32:27.884Z,98825.19
2022-12-31T19:34:56.958Z,98823.19
2022-12-31T19:37:26.538Z,98812.56
2022-12-31T19:39:56.030Z,98816.13
2022-12-31T19:42:26.873Z,98812.50
2022-12-31T19:44:58.451Z,98809.69
2022-12-31T19:47:31.759Z,98808.69
2022-12-31T19:50:02.280Z,98818.63
2022-12-31T19:52:36.772Z,98826.81
2022-12-31T19:55:06.658Z,98821.50
2022-12-31T19:57:37.545Z,98836.72
2022-12-31T20:00:12.403Z,98830.44
2022-12-31T20:02:51.080Z,98838.06
2022-12-31T20:05:24.966Z,98828.25
2022-12-31T20:07:55.167Z,98821.44
2022-12-31T20:10:24.028Z,98833.06
2022-12-31T20:12:54.492Z,98839.41
2022-12-31T20:15:26.132Z,98836.31
2022-12-31T20:18:01.055Z,98842.97
2022-12-31T20:20:31.553Z,98847.50
2022-12-31T20:23:02.729Z,98854.66
2022-12-31T20:25:33.961Z,98840.97
2022-12-31T20:28:06.407Z,98858.00
2022-12-31T20:30:36.113Z,98847.34
2022-12-31T20:33:19.005Z,98839.91
2022-12-31T20:35:49.317Z,98836.81
2022-12-31T20:38:18.624Z,98842.41
2022-12-31T20:40:48.764Z,98849.50
2022-12-31T20:43:17.306Z,98860.22
2022-12-31T20:45:46.108Z,98839.47
2022-12-31T20:48:16.246Z,98853.78
2022-12-31T20:50:44.870Z,98844.06
2022-12-31T20:53:13.766Z,98832.53
2022-12-31T20:55:45.458Z,98830.63
2022-12-31T20:58:15.336Z,98831.25
2022-12-31T21:00:49.368Z,98837.41
2022-12-31T21:04:02.452Z,98825.25
2022-12-31T21:06:09.655Z,98836.66
2022-12-31T21:08:38.458Z,98833.13
2022-12-31T21:11:29.840Z,98825.97
2022-12-31T21:14:02.292Z,98830.81
2022-12-31T21:16:32.055Z,98837.22
2022-12-31T21:19:02.107Z,98847.66
2022-12-31T21:21:37.167Z,98847.09
2022-12-31T21:24:07.824Z,98848.34
2022-12-31T21:26:37.445Z,98844.47
2022-12-31T21:29:07.043Z,98843.13
2022-12-31T21:31:35.792Z,98853.69
2022-12-31T21:34:06.923Z,98864.75
2022-12-31T21:36:36.757Z,98862.22
2022-12-31T21:39:10.332Z,98857.03
2022-12-31T21:41:54.729Z,98859.69
2022-12-31T21:44:24.603Z,98864.88
2022-12-31T21:47:36.413Z,98865.53
2022-12-31T21:50:14.074Z,98869.03
2022-12-31T21:52:44.471Z,98880.88
2022-12-31T21:55:31.148Z,98885.66
2022-12-31T21:58:25.426Z,98876.56
2022-12-31T22:01:07.498Z,98883.97
2022-12-31T22:03:37.968Z,98894.63
2022-12-31T22:06:23.698Z,98896.69
2022-12-31T22:08:55.158Z,98892.81
2022-12-31T22:11:25.982Z,98909.66
2022-12-31T22:13:57.653Z,98903.22
2022-12-31T22:16:28.488Z,98915.63
2022-12-31T22:18:57.723Z,98911.66
2022-12-31T22:21:27.822Z,98919.72
2022-12-31T22:23:58.832Z,98918.75
2022-12-31T22:26:30.622Z,98921.75
2022-12-31T22:29:00.922Z,98927.28
2022-12-31T22:31:31.411Z,98930.78
2022-12-31T22:34:02.253Z,98933.97
2022-12-31T22:36:36.641Z,98935.41
2022-12-31T22:39:05.304Z,98937.34
2022-12-31T22:41:33.735Z,98940.94
2022-12-31T22:44:05.219Z,98946.78
2022-12-31T22:46:35.085Z,98949.72
2022-12-31T22:49:05.474Z,98946.47
2022-12-31T22:51:58.767Z,98951.25
2022-12-31T22:54:25.252Z,98952.53
2022-12-31T22:56:54.001Z,98958.25
2022-12-31T22:59:22.604Z,98954.72
2022-12-31T23:01:51.305Z,98954.38
2022-12-31T23:04:23.414Z,98955.63
2022-12-31T23:06:53.664Z,98962.88
2022-12-31T23:09:39.826Z,98972.13
2022-12-31T23:12:11.815Z,98969.25
2022-12-31T23:14:58.006Z,98971.72
2022-12-31T23:17:46.140Z,98967.34
2022-12-31T23:20:34.791Z,98966.97
2022-12-31T23:23:09.630Z,98960.84
2022-12-31T23:25:40.782Z,98957.44
2022-12-31T23:28:10.916Z,98958.66
2022-12-31T23:30:41.001Z,98954.66
2022-12-31T23:33:10.871Z,98959.16
2022-12-31T23:35:41.669Z,98960.34
2022-12-31T23:38:11.513Z,98961.53
2022-12-31T23:40:39.819Z,98975.97
2022-12-31T23:43:09.824Z,98971.72
2022-12-31T23:45:38.429Z,98962.00
2022-12-31T23:48:07.330Z,98973.09
2022-12-31T23:50:36.028Z,98971.06
2022-12-31T23:53:04.720Z,98970.44
2022-12-31T23:55:36.020Z,98979.88
2022-12-31T23:58:04.545Z,98978.28
